Time;durP1;ratioP1;P1;durP2;ratioP2;P2;SDS_P1;SDS_P2;PMS_P1;PMS_P2;Temp;Humidity;BMP_temperature;BMP_pressure;BME280_temperature;BME280_humidity;BME280_pressure;Samples;Min_cycle;Max_cycle;Signal;HPM_P1;HPM_P2
2022/12/21 00:00:26;;;;;;;25.08;21.42;;;;;;;;;;5053107;28;20409;-84
2022/12/21 00:02:52;;;;;;;24.70;21.13;;;;;;;;;;5053233;28;20448;-84
2022/12/21 00:05:18;;;;;;;24.75;21.00;;;;;;;;;;5053336;28;20461;-83
2022/12/21 00:07:44;;;;;;;22.07;19.10;;;;;;;;;;5051332;28;20384;-84
2022/12/21 00:10:10;;;;;;;21.85;19.27;;;;;;;;;;5053097;28;20434;-83
2022/12/21 00:12:36;;;;;;;21.00;18.77;;;;;;;;;;5052767;28;20520;-83
2022/12/21 00:15:02;;;;;;;28.70;23.17;;;;;;;;;;5052952;28;20404;-84
2022/12/21 00:17:28;;;;;;;33.40;26.73;;;;;;;;;;5053019;28;20373;-83
2022/12/21 00:19:54;;;;;;;27.02;23.73;;;;;;;;;;5052704;28;20850;-83
2022/12/21 00:22:20;;;;;;;26.27;22.70;;;;;;;;;;5052937;28;20381;-84
2022/12/21 00:24:46;;;;;;;25.52;21.75;;;;;;;;;;5052844;28;20401;-84
2022/12/21 00:27:12;;;;;;;22.80;20.45;;;;;;;;;;5052880;28;20739;-83
2022/12/21 00:29:38;;;;;;;23.17;20.50;;;;;;;;;;5051126;28;20470;-83
2022/12/21 00:32:04;;;;;;;23.17;20.73;;;;;;;;;;5052261;28;20381;-83
2022/12/21 00:34:30;;;;;;;22.77;20.45;;;;;;;;;;5052361;28;20413;-83
2022/12/21 00:36:56;;;;;;;22.42;19.92;;;;;;;;;;5050370;28;20904;-84
2022/12/21 00:39:22;;;;;;;22.13;19.67;;;;;;;;;;5052248;28;20377;-83
2022/12/21 00:41:48;;;;;;;22.08;19.67;;;;;;;;;;5052504;28;20397;-83
2022/12/21 00:44:14;;;;;;;22.25;19.85;;;;;;;;;;5052472;28;20449;-84
2022/12/21 00:46:41;;;;;;;20.52;18.42;;;;;;;;;;5052462;28;20903;-84
2022/12/21 00:49:07;;;;;;;20.10;18.02;;;;;;;;;;5052262;28;20385;-84
2022/12/21 00:51:34;;;;;;;20.38;18.27;;;;;;;;;;5052099;28;20756;-84
2022/12/21 00:54:00;;;;;;;19.98;17.90;;;;;;;;;;5052132;28;20476;-83
2022/12/21 00:56:27;;;;;;;19.83;17.67;;;;;;;;;;5052262;28;20385;-83
2022/12/21 00:58:53;;;;;;;19.23;17.23;;;;;;;;;;5052080;28;20393;-84
2022/12/21 01:01:20;;;;;;;19.30;17.40;;;;;;;;;;5052086;28;20396;-83
2022/12/21 01:03:46;;;;;;;18.58;16.60;;;;;;;;;;5051460;28;20882;-83
2022/12/21 01:06:17;;;;;;;19.40;17.40;;;;;;;;;;5052085;28;20447;-83
2022/12/21 01:08:43;;;;;;;18.35;16.45;;;;;;;;;;5052013;28;20517;-83
2022/12/21 01:11:10;;;;;;;19.55;17.50;;;;;;;;;;5051901;28;20875;-83
2022/12/21 01:13:36;;;;;;;19.35;17.35;;;;;;;;;;5051982;28;20380;-84
2022/12/21 01:16:02;;;;;;;18.48;16.58;;;;;;;;;;5051819;28;20439;-84
2022/12/21 01:18:28;;;;;;;18.53;16.63;;;;;;;;;;5044967;28;20374;-83
2022/12/21 01:20:55;;;;;;;19.95;17.90;;;;;;;;;;5051803;28;20508;-83
2022/12/21 01:23:21;;;;;;;19.25;17.23;;;;;;;;;;5051800;28;20385;-84
2022/12/21 01:25:48;;;;;;;18.65;16.75;;;;;;;;;;5051829;28;20381;-83
2022/12/21 01:28:14;;;;;;;18.23;16.33;;;;;;;;;;5051687;28;20381;-84
2022/12/21 01:30:40;;;;;;;21.42;18.75;;;;;;;;;;5049863;28;20385;-83
2022/12/21 01:33:07;;;;;;;20.37;18.20;;;;;;;;;;5051159;28;20408;-84
2022/12/21 01:35:33;;;;;;;19.00;17.02;;;;;;;;;;5033388;28;20440;-84
2022/12/21 01:37:59;;;;;;;21.98;18.75;;;;;;;;;;5033426;28;20386;-83
2022/12/21 01:40:29;;;;;;;19.67;17.58;;;;;;;;;;5051311;28;20385;-83
2022/12/21 01:42:55;;;;;;;19.70;17.60;;;;;;;;;;5051909;28;20413;-84
2022/12/21 01:45:29;;;;;;;20.40;18.17;;;;;;;;;;5024347;28;21038;-84
2022/12/21 01:48:00;;;;;;;19.25;17.23;;;;;;;;;;5051522;28;20946;-84
2022/12/21 01:50:25;;;;;;;21.30;18.60;;;;;;;;;;5051378;28;20389;-83
2022/12/21 01:52:53;;;;;;;19.60;17.50;;;;;;;;;;5051532;28;20388;-84
2022/12/21 01:55:19;;;;;;;19.70;17.70;;;;;;;;;;5051414;28;20416;-84
2022/12/21 01:57:45;;;;;;;20.02;17.85;;;;;;;;;;5043372;28;20846;-83
2022/12/21 02:00:11;;;;;;;23.85;20.80;;;;;;;;;;5051220;28;20408;-83
2022/12/21 02:02:41;;;;;;;21.98;19.55;;;;;;;;;;5046391;28;20373;-83
2022/12/21 02:05:26;;;;;;;21.83;19.50;;;;;;;;;;5051453;28;20376;-84
2022/12/21 02:07:52;;;;;;;26.52;22.08;;;;;;;;;;5051350;28;20381;-84
2022/12/21 02:10:19;;;;;;;24.40;21.80;;;;;;;;;;5051015;28;20388;-83
2022/12/21 02:12:46;;;;;;;23.15;20.75;;;;;;;;;;5051322;28;20762;-83
2022/12/21 02:15:12;;;;;;;21.67;19.48;;;;;;;;;;5054981;28;20467;-83
2022/12/21 02:17:47;;;;;;;21.05;18.80;;;;;;;;;;5055225;28;20365;-84
2022/12/21 02:20:34;;;;;;;22.27;19.92;;;;;;;;;;5055130;28;20535;-83
2022/12/21 02:23:23;;;;;;;22.42;19.98;;;;;;;;;;5055128;28;20392;-84
2022/12/21 02:26:08;;;;;;;21.60;18.50;;;;;;;;;;5054601;28;20746;-83
2022/12/21 02:28:52;;;;;;;20.30;18.20;;;;;;;;;;5055094;28;20389;-84
2022/12/21 02:31:22;;;;;;;21.27;19.05;;;;;;;;;;5053431;28;20369;-84
2022/12/21 02:33:54;;;;;;;21.35;19.10;;;;;;;;;;5054913;28;20712;-83
2022/12/21 02:36:20;;;;;;;20.55;18.45;;;;;;;;;;5054480;28;20512;-84
2022/12/21 02:38:52;;;;;;;21.88;19.38;;;;;;;;;;5054373;28;20468;-84
2022/12/21 02:41:27;;;;;;;21.47;19.17;;;;;;;;;;5054713;28;20731;-84
2022/12/21 02:44:12;;;;;;;22.08;19.27;;;;;;;;;;5051608;28;20934;-83
2022/12/21 02:46:46;;;;;;;22.48;20.08;;;;;;;;;;5055064;28;20734;-84
2022/12/21 02:49:24;;;;;;;21.70;19.35;;;;;;;;;;5054246;28;20914;-84
2022/12/21 02:51:59;;;;;;;21.42;19.15;;;;;;;;;;5054745;28;20433;-84
2022/12/21 02:54:25;;;;;;;21.45;18.95;;;;;;;;;;5054449;28;20458;-83
2022/12/21 02:56:51;;;;;;;21.65;19.40;;;;;;;;;;5054563;28;20377;-84
2022/12/21 02:59:17;;;;;;;21.20;19.02;;;;;;;;;;5054104;28;20405;-84
2022/12/21 03:01:52;;;;;;;20.38;18.20;;;;;;;;;;5054501;28;20723;-84
2022/12/21 03:04:24;;;;;;;19.77;17.65;;;;;;;;;;5054400;28;20516;-84
2022/12/21 03:07:08;;;;;;;19.30;17.38;;;;;;;;;;5054403;28;20381;-83
2022/12/21 03:09:37;;;;;;;19.95;18.00;;;;;;;;;;5054303;28;20708;-83
2022/12/21 03:12:18;;;;;;;20.23;18.13;;;;;;;;;;5050041;28;20386;-84
2022/12/21 03:14:47;;;;;;;17.60;15.90;;;;;;;;;;5052964;28;20504;-83
2022/12/21 03:17:25;;;;;;;18.35;16.38;;;;;;;;;;5054101;28;20934;-84
2022/12/21 03:19:57;;;;;;;17.85;16.15;;;;;;;;;;5047967;28;20751;-84
2022/12/21 03:22:44;;;;;;;19.17;17.27;;;;;;;;;;5041916;28;20417;-84
2022/12/21 03:25:13;;;;;;;18.98;17.02;;;;;;;;;;5033306;28;20862;-83
2022/12/21 03:27:42;;;;;;;17.55;15.85;;;;;;;;;;5046246;28;20389;-84
2022/12/21 03:30:10;;;;;;;18.58;16.58;;;;;;;;;;5052630;28;20426;-84
2022/12/21 03:33:02;;;;;;;18.13;16.33;;;;;;;;;;5051958;28;20422;-84
2022/12/21 03:35:31;;;;;;;20.67;18.10;;;;;;;;;;5048835;28;20477;-83
2022/12/21 03:37:59;;;;;;;18.33;16.45;;;;;;;;;;5053352;28;20418;-84
2022/12/21 03:40:26;;;;;;;18.23;16.38;;;;;;;;;;5053128;28;20393;-84
2022/12/21 03:43:12;;;;;;;18.80;17.00;;;;;;;;;;5053428;28;20377;-83
2022/12/21 03:45:42;;;;;;;21.42;19.23;;;;;;;;;;5035726;28;20985;-83
2022/12/21 03:48:14;;;;;;;21.17;19.00;;;;;;;;;;5053575;28;20419;-84
2022/12/21 03:50:44;;;;;;;22.03;19.73;;;;;;;;;;5052812;28;20389;-83
2022/12/21 03:53:28;;;;;;;21.40;19.30;;;;;;;;;;5027093;28;20878;-84
2022/12/21 03:55:56;;;;;;;18.25;16.45;;;;;;;;;;5053264;28;20441;-84
2022/12/21 03:58:22;;;;;;;17.67;16.03;;;;;;;;;;5053412;28;20400;-83
2022/12/21 04:00:58;;;;;;;17.92;16.15;;;;;;;;;;5035258;28;20767;-83
2022/12/21 04:03:31;;;;;;;19.02;17.13;;;;;;;;;;5053209;28;20456;-85
2022/12/21 04:06:06;;;;;;;17.67;16.07;;;;;;;;;;5053249;28;20409;-84
2022/12/21 04:08:32;;;;;;;18.65;16.95;;;;;;;;;;5052828;28;20564;-83
2022/12/21 04:10:58;;;;;;;18.20;16.52;;;;;;;;;;5053008;28;20460;-84
2022/12/21 04:13:24;;;;;;;18.90;17.02;;;;;;;;;;5046195;28;20390;-84
2022/12/21 04:16:05;;;;;;;18.52;16.73;;;;;;;;;;5052969;28;20424;-83
2022/12/21 04:21:19;;;;;;;18.85;17.05;;;;;;;;;;5053182;28;20460;-84
2022/12/21 04:29:14;;;;;;;18.75;16.95;;;;;;;;;;5052686;28;20473;-84
2022/12/21 04:31:40;;;;;;;20.15;17.67;;;;;;;;;;5052320;28;20405;-83
2022/12/21 04:34:06;;;;;;;17.88;16.15;;;;;;;;;;5051133;28;20417;-83
2022/12/21 04:39:17;;;;;;;18.27;16.30;;;;;;;;;;5047068;28;20447;-84
2022/12/21 04:41:43;;;;;;;18.77;16.77;;;;;;;;;;5044814;28;20401;-84
2022/12/21 04:44:09;;;;;;;17.40;15.77;;;;;;;;;;5044970;28;20390;-84
2022/12/21 04:46:35;;;;;;;17.55;15.85;;;;;;;;;;5049653;28;20469;-84
2022/12/21 04:49:01;;;;;;;18.58;16.67;;;;;;;;;;5049792;28;20479;-84
2022/12/21 04:51:27;;;;;;;17.83;16.13;;;;;;;;;;5051536;28;20413;-84
2022/12/21 04:53:53;;;;;;;17.60;15.90;;;;;;;;;;5052248;28;20416;-84
2022/12/21 04:56:19;;;;;;;18.10;16.30;;;;;;;;;;5052225;28;20970;-83
2022/12/21 04:58:46;;;;;;;18.60;16.80;;;;;;;;;;5052182;28;20393;-84
2022/12/21 05:01:14;;;;;;;18.73;16.83;;;;;;;;;;5051951;28;20740;-84
2022/12/21 05:03:40;;;;;;;17.02;15.43;;;;;;;;;;5052140;28;20389;-85
2022/12/21 05:06:06;;;;;;;16.67;15.07;;;;;;;;;;5045889;28;20385;-84
2022/12/21 05:08:32;;;;;;;16.65;15.15;;;;;;;;;;5046204;28;20425;-84
2022/12/21 05:11:13;;;;;;;15.85;14.35;;;;;;;;;;5051786;28;20474;-84
2022/12/21 05:13:40;;;;;;;17.23;15.53;;;;;;;;;;5052032;28;20378;-83
2022/12/21 05:16:07;;;;;;;17.73;15.93;;;;;;;;;;5051784;28;20488;-84
2022/12/21 05:18:33;;;;;;;17.30;15.60;;;;;;;;;;5050194;28;20389;-83
2022/12/21 05:20:59;;;;;;;17.33;15.63;;;;;;;;;;5049468;28;20866;-84
2022/12/21 05:23:25;;;;;;;18.35;16.45;;;;;;;;;;5048895;28;20435;-84
2022/12/21 05:25:51;;;;;;;18.03;16.30;;;;;;;;;;5050320;28;20813;-85
2022/12/21 05:28:17;;;;;;;16.80;15.13;;;;;;;;;;5050696;28;20390;-84
2022/12/21 05:30:43;;;;;;;17.65;15.85;;;;;;;;;;5050496;28;20378;-84
2022/12/21 05:33:09;;;;;;;16.13;14.63;;;;;;;;;;5049412;28;20383;-83
2022/12/21 05:35:39;;;;;;;16.15;14.50;;;;;;;;;;5050377;28;20451;-83
2022/12/21 05:38:08;;;;;;;16.60;15.00;;;;;;;;;;5050091;28;20374;-84
2022/12/21 05:40:35;;;;;;;17.05;15.40;;;;;;;;;;5050223;28;20460;-82
2022/12/21 05:43:01;;;;;;;16.67;14.57;;;;;;;;;;5049253;28;20435;-83
2022/12/21 05:45:27;;;;;;;15.13;13.63;;;;;;;;;;5032373;28;20914;-83
2022/12/21 05:47:54;;;;;;;15.70;14.20;;;;;;;;;;5050522;28;20378;-84
2022/12/21 05:50:20;;;;;;;16.10;14.63;;;;;;;;;;5050381;28;20385;-85
2022/12/21 05:52:46;;;;;;;15.90;14.50;;;;;;;;;;5032900;28;20374;-83
2022/12/21 05:55:12;;;;;;;17.67;15.80;;;;;;;;;;5051412;28;20470;-83
2022/12/21 05:57:38;;;;;;;17.05;15.45;;;;;;;;;;5049994;28;20751;-84
2022/12/21 06:00:05;;;;;;;17.67;15.82;;;;;;;;;;5049775;28;20400;-84
2022/12/21 06:02:31;;;;;;;17.43;15.60;;;;;;;;;;5050405;28;20455;-83
2022/12/21 06:04:57;;;;;;;18.05;16.05;;;;;;;;;;5050310;28;20472;-83
2022/12/21 06:07:23;;;;;;;16.20;14.60;;;;;;;;;;5043955;28;20474;-83
2022/12/21 06:09:49;;;;;;;15.18;13.77;;;;;;;;;;5048159;28;20393;-83
2022/12/21 06:12:15;;;;;;;16.58;14.93;;;;;;;;;;5036650;28;20426;-84
2022/12/21 06:14:41;;;;;;;14.90;13.53;;;;;;;;;;5038677;28;20436;-83
2022/12/21 06:17:07;;;;;;;17.75;14.23;;;;;;;;;;5039508;28;20426;-83
2022/12/21 06:19:33;;;;;;;15.10;13.68;;;;;;;;;;5030808;28;20375;-84
2022/12/21 06:21:59;;;;;;;16.00;14.45;;;;;;;;;;5049362;28;20841;-83
2022/12/21 06:24:24;;;;;;;15.63;14.02;;;;;;;;;;5051013;28;20477;-82
2022/12/21 06:26:50;;;;;;;13.75;12.45;;;;;;;;;;5050907;28;20945;-83
2022/12/21 06:29:16;;;;;;;17.13;13.80;;;;;;;;;;5050984;28;20464;-83
2022/12/21 06:31:42;;;;;;;14.70;13.45;;;;;;;;;;5049076;28;20381;-82
2022/12/21 06:34:12;;;;;;;15.87;14.20;;;;;;;;;;5030866;28;20952;-83
2022/12/21 06:36:38;;;;;;;14.65;13.35;;;;;;;;;;5056736;28;20394;-83
2022/12/21 06:39:04;;;;;;;14.75;13.43;;;;;;;;;;5066876;28;20378;-83
2022/12/21 06:41:30;;;;;;;14.38;13.18;;;;;;;;;;5059027;28;20834;-83
2022/12/21 06:43:56;;;;;;;14.13;12.80;;;;;;;;;;5050631;28;20373;-83
2022/12/21 06:46:22;;;;;;;15.05;13.65;;;;;;;;;;5051085;28;20390;-83
2022/12/21 06:48:48;;;;;;;14.63;13.10;;;;;;;;;;5051000;28;20370;-83
2022/12/21 06:51:15;;;;;;;16.42;14.57;;;;;;;;;;5051036;28;20377;-83
2022/12/21 06:53:42;;;;;;;16.70;14.95;;;;;;;;;;5049221;28;20387;-86
2022/12/21 06:56:10;;;;;;;14.80;13.43;;;;;;;;;;5050761;28;20763;-84
2022/12/21 06:58:37;;;;;;;16.45;14.88;;;;;;;;;;5050922;28;20393;-84
2022/12/21 07:01:07;;;;;;;16.10;14.40;;;;;;;;;;5052324;28;20406;-86
2022/12/21 07:03:33;;;;;;;14.63;13.23;;;;;;;;;;5054502;28;20409;-86
2022/12/21 07:05:59;;;;;;;14.30;12.85;;;;;;;;;;5048572;28;20540;-85
2022/12/21 07:08:25;;;;;;;14.93;13.43;;;;;;;;;;5054444;28;20450;-87
2022/12/21 07:10:55;;;;;;;14.48;13.27;;;;;;;;;;5044921;28;20472;-85
2022/12/21 07:13:21;;;;;;;14.30;12.93;;;;;;;;;;5054345;28;20392;-86
2022/12/21 07:15:47;;;;;;;13.85;12.60;;;;;;;;;;5054232;28;20404;-86
2022/12/21 07:18:13;;;;;;;14.87;13.40;;;;;;;;;;5054175;28;20468;-85
2022/12/21 07:20:39;;;;;;;14.85;13.52;;;;;;;;;;5057467;28;20404;-85
2022/12/21 07:23:05;;;;;;;14.75;13.48;;;;;;;;;;5054822;28;20377;-86
2022/12/21 07:25:31;;;;;;;15.57;14.18;;;;;;;;;;5054128;28;20378;-85
2022/12/21 07:27:57;;;;;;;15.60;14.10;;;;;;;;;;5054004;28;20373;-87
2022/12/21 07:30:24;;;;;;;15.68;14.10;;;;;;;;;;5053857;28;20385;-85
2022/12/21 07:32:53;;;;;;;16.52;14.88;;;;;;;;;;5053963;28;20389;-85
2022/12/21 07:35:19;;;;;;;16.83;15.18;;;;;;;;;;5053830;28;20405;-86
2022/12/21 07:37:45;;;;;;;17.27;15.55;;;;;;;;;;5053825;28;20389;-85
2022/12/21 07:40:11;;;;;;;17.00;15.30;;;;;;;;;;5053606;28;20743;-86
2022/12/21 07:42:38;;;;;;;20.02;16.85;;;;;;;;;;5052053;28;20388;-85
2022/12/21 07:45:04;;;;;;;21.02;17.75;;;;;;;;;;5050140;28;20865;-85
2022/12/21 07:47:30;;;;;;;17.27;15.45;;;;;;;;;;5053594;28;20404;-85
2022/12/21 07:49:56;;;;;;;17.85;15.88;;;;;;;;;;5053525;28;20382;-84
2022/12/21 07:52:22;;;;;;;23.27;17.30;;;;;;;;;;5053485;28;20886;-84
2022/12/21 07:54:48;;;;;;;19.38;16.45;;;;;;;;;;5053433;28;20398;-84
2022/12/21 07:57:14;;;;;;;18.35;16.33;;;;;;;;;;5053329;28;20759;-85
2022/12/21 07:59:40;;;;;;;20.92;17.25;;;;;;;;;;5053031;28;20419;-85
2022/12/21 08:02:06;;;;;;;23.25;18.27;;;;;;;;;;5052250;28;20460;-85
2022/12/21 08:04:32;;;;;;;21.00;18.50;;;;;;;;;;5052791;28;20373;-84
2022/12/21 08:06:58;;;;;;;20.45;17.92;;;;;;;;;;5052829;28;20878;-85
2022/12/21 08:09:24;;;;;;;19.13;17.10;;;;;;;;;;5053034;28;20407;-85
2022/12/21 08:11:50;;;;;;;21.15;17.52;;;;;;;;;;5052914;28;20457;-84
2022/12/21 08:14:16;;;;;;;20.33;18.10;;;;;;;;;;5052977;28;20870;-85
2022/12/21 08:16:42;;;;;;;22.25;19.23;;;;;;;;;;5045261;28;20468;-84
2022/12/21 08:19:08;;;;;;;18.75;16.50;;;;;;;;;;5052493;28;20374;-84
2022/12/21 08:21:34;;;;;;;19.08;17.10;;;;;;;;;;5052907;28;20374;-84
2022/12/21 08:23:59;;;;;;;18.05;16.27;;;;;;;;;;5052884;28;20789;-85
2022/12/21 08:26:25;;;;;;;19.17;17.23;;;;;;;;;;5052737;28;20382;-84
2022/12/21 08:28:51;;;;;;;19.27;17.17;;;;;;;;;;5052800;28;20378;-85
2022/12/21 08:31:19;;;;;;;19.95;17.73;;;;;;;;;;5052613;28;20851;-85
2022/12/21 08:33:45;;;;;;;18.75;16.67;;;;;;;;;;5052925;28;20728;-85
2022/12/21 08:36:12;;;;;;;18.58;16.52;;;;;;;;;;5051457;28;20413;-85
2022/12/21 08:38:38;;;;;;;18.70;16.92;;;;;;;;;;5052533;28;20391;-85
2022/12/21 08:41:05;;;;;;;26.00;20.47;;;;;;;;;;5052529;28;20724;-84
2022/12/21 08:43:31;;;;;;;18.20;16.30;;;;;;;;;;5052483;28;20447;-85
2022/12/21 08:45:57;;;;;;;23.00;19.33;;;;;;;;;;5052471;28;20862;-85
2022/12/21 08:48:23;;;;;;;24.02;20.30;;;;;;;;;;5052509;28;20473;-84
2022/12/21 08:50:50;;;;;;;27.05;21.48;;;;;;;;;;5052248;28;20739;-84
2022/12/21 08:53:16;;;;;;;28.13;22.50;;;;;;;;;;5051870;28;20476;-83
2022/12/21 08:55:42;;;;;;;26.98;20.48;;;;;;;;;;5051732;28;20408;-85
2022/12/21 08:58:08;;;;;;;31.25;23.67;;;;;;;;;;5046689;28;20379;-84
2022/12/21 09:00:34;;;;;;;28.55;22.50;;;;;;;;;;5046016;28;20409;-84
2022/12/21 09:03:01;;;;;;;31.48;25.42;;;;;;;;;;5047914;28;20463;-84
2022/12/21 09:05:27;;;;;;;26.92;22.17;;;;;;;;;;5052237;28;20774;-84
2022/12/21 09:07:53;;;;;;;26.38;21.88;;;;;;;;;;5052116;28;20443;-84
2022/12/21 09:10:19;;;;;;;43.65;29.88;;;;;;;;;;5051747;28;20374;-84
2022/12/21 09:12:45;;;;;;;35.70;27.67;;;;;;;;;;5051371;28;20494;-85
2022/12/21 09:15:11;;;;;;;33.88;25.98;;;;;;;;;;5051208;28;20406;-83
2022/12/21 09:17:37;;;;;;;29.63;25.77;;;;;;;;;;5042470;28;20383;-83
2022/12/21 09:20:05;;;;;;;38.50;28.65;;;;;;;;;;5051707;28;20397;-83
2022/12/21 09:22:31;;;;;;;33.47;26.35;;;;;;;;;;5051592;28;20398;-83
2022/12/21 09:24:57;;;;;;;31.45;25.02;;;;;;;;;;5051332;28;20389;-82
2022/12/21 09:27:23;;;;;;;34.28;24.30;;;;;;;;;;5051844;28;20413;-82
2022/12/21 09:29:49;;;;;;;36.47;26.75;;;;;;;;;;5051653;28;20405;-83
2022/12/21 09:32:15;;;;;;;35.90;26.63;;;;;;;;;;5051592;28;20396;-83
2022/12/21 09:34:41;;;;;;;38.15;26.23;;;;;;;;;;5049876;28;20888;-83
2022/12/21 09:37:07;;;;;;;40.05;28.60;;;;;;;;;;5051706;28;20389;-82
2022/12/21 09:39:33;;;;;;;39.03;27.80;;;;;;;;;;5051779;28;20370;-82
2022/12/21 09:42:31;;;;;;;41.67;28.00;;;;;;;;;;5051540;28;20404;-82
2022/12/21 09:45:07;;;;;;;33.85;26.90;;;;;;;;;;4962150;28;25108;-82
2022/12/21 09:47:33;;;;;;;36.95;26.52;;;;;;;;;;5050348;28;25107;-82
2022/12/21 09:50:00;;;;;;;30.65;25.50;;;;;;;;;;5051432;28;20370;-83
2022/12/21 09:52:35;;;;;;;28.75;23.90;;;;;;;;;;5051447;28;20401;-82
2022/12/21 09:55:06;;;;;;;33.97;24.75;;;;;;;;;;5051418;28;20546;-83
2022/12/21 09:57:35;;;;;;;30.38;23.75;;;;;;;;;;5055933;28;20868;-82
2022/12/21 10:00:03;;;;;;;36.58;23.90;;;;;;;;;;5054772;28;20393;-82
2022/12/21 10:02:46;;;;;;;39.65;28.92;;;;;;;;;;5055160;28;20397;-82
2022/12/21 10:05:22;;;;;;;28.77;23.08;;;;;;;;;;5051435;28;20468;-82
2022/12/21 10:07:51;;;;;;;35.13;24.92;;;;;;;;;;5051330;28;20423;-82
2022/12/21 10:10:17;;;;;;;32.35;24.00;;;;;;;;;;5051247;28;20455;-82
2022/12/21 10:13:01;;;;;;;31.70;22.98;;;;;;;;;;5051270;28;20863;-82
2022/12/21 10:15:35;;;;;;;27.95;21.02;;;;;;;;;;5047991;28;20919;-83
2022/12/21 10:18:11;;;;;;;24.52;20.33;;;;;;;;;;5051327;28;20403;-82
2022/12/21 10:20:47;;;;;;;29.60;21.90;;;;;;;;;;5051189;28;20410;-82
2022/12/21 10:23:22;;;;;;;28.42;21.67;;;;;;;;;;5051189;28;20384;-82
2022/12/21 10:25:49;;;;;;;27.42;22.08;;;;;;;;;;5051210;28;20452;-82
2022/12/21 10:28:34;;;;;;;28.98;22.65;;;;;;;;;;5051203;28;20434;-82
2022/12/21 10:31:10;;;;;;;26.80;21.47;;;;;;;;;;5051073;28;20469;-82
2022/12/21 10:33:40;;;;;;;30.50;23.08;;;;;;;;;;5051103;28;20431;-82
2022/12/21 10:36:06;;;;;;;34.57;24.77;;;;;;;;;;5054395;28;20431;-82
2022/12/21 10:38:34;;;;;;;30.38;24.65;;;;;;;;;;5054879;28;20377;-82
2022/12/21 10:41:01;;;;;;;31.63;25.25;;;;;;;;;;5055331;28;20373;-82
2022/12/21 10:43:27;;;;;;;31.53;24.27;;;;;;;;;;5056112;28;20556;-82
2022/12/21 10:45:53;;;;;;;31.83;24.88;;;;;;;;;;5054761;28;20471;-82
2022/12/21 10:48:19;;;;;;;32.30;25.25;;;;;;;;;;5056627;28;20385;-82
2022/12/21 10:50:47;;;;;;;32.05;25.85;;;;;;;;;;5057005;28;20392;-82
2022/12/21 10:53:26;;;;;;;33.88;26.02;;;;;;;;;;5057023;28;20386;-82
2022/12/21 10:55:55;;;;;;;32.50;26.55;;;;;;;;;;5054435;28;20402;-82
2022/12/21 10:58:22;;;;;;;33.60;29.20;;;;;;;;;;5054461;28;20381;-82
2022/12/21 11:00:53;;;;;;;41.45;34.08;;;;;;;;;;5053997;28;20394;-82
2022/12/21 11:03:24;;;;;;;40.13;31.40;;;;;;;;;;5046672;28;20374;-82
2022/12/21 11:05:50;;;;;;;43.30;33.15;;;;;;;;;;5054278;28;20385;-82
2022/12/21 11:08:19;;;;;;;55.53;40.55;;;;;;;;;;5051373;28;20408;-82
2022/12/21 11:10:47;;;;;;;54.97;35.10;;;;;;;;;;5052490;28;20466;-82
2022/12/21 11:13:14;;;;;;;46.00;32.70;;;;;;;;;;5054153;28;20389;-82
2022/12/21 11:16:01;;;;;;;50.92;36.55;;;;;;;;;;5054082;28;20397;-82
2022/12/21 11:18:27;;;;;;;71.40;45.58;;;;;;;;;;5054148;28;20460;-82
2022/12/21 11:20:53;;;;;;;52.88;41.03;;;;;;;;;;5054038;28;20403;-82
2022/12/21 11:23:19;;;;;;;53.45;38.65;;;;;;;;;;5054002;28;20413;-82
2022/12/21 11:25:45;;;;;;;58.28;40.47;;;;;;;;;;5034404;28;20429;-82
2022/12/21 11:28:11;;;;;;;44.83;32.15;;;;;;;;;;5053040;28;20397;-82
2022/12/21 11:30:38;;;;;;;42.95;32.10;;;;;;;;;;5053730;28;20385;-82
2022/12/21 11:33:06;;;;;;;45.35;32.70;;;;;;;;;;5053857;28;20390;-82
2022/12/21 11:35:35;;;;;;;41.70;30.92;;;;;;;;;;5053737;28;20397;-82
2022/12/21 11:38:15;;;;;;;40.70;31.08;;;;;;;;;;5053667;28;20393;-82
2022/12/21 11:40:54;;;;;;;37.17;28.07;;;;;;;;;;5053548;28;20448;-82
2022/12/21 11:43:20;;;;;;;40.03;30.90;;;;;;;;;;5036769;28;20399;-82
2022/12/21 11:45:46;;;;;;;42.15;31.58;;;;;;;;;;5053261;28;20392;-82
2022/12/21 11:48:31;;;;;;;37.60;28.05;;;;;;;;;;5053337;28;20817;-82
2022/12/21 11:51:00;;;;;;;36.35;29.90;;;;;;;;;;5053307;28;20375;-82
2022/12/21 11:53:29;;;;;;;41.38;32.28;;;;;;;;;;5053441;28;20409;-82
2022/12/21 11:55:55;;;;;;;42.65;33.58;;;;;;;;;;5053233;28;20770;-82
2022/12/21 11:58:39;;;;;;;46.03;34.37;;;;;;;;;;5053391;28;20924;-82
2022/12/21 12:01:17;;;;;;;46.03;35.35;;;;;;;;;;5052987;28;20935;-82
2022/12/21 12:04:02;;;;;;;47.97;34.97;;;;;;;;;;5053261;28;20386;-82
2022/12/21 12:06:46;;;;;;;42.78;31.50;;;;;;;;;;5048118;28;20379;-82
2022/12/21 12:09:21;;;;;;;40.42;30.77;;;;;;;;;;5048231;28;20374;-82
2022/12/21 12:11:47;;;;;;;37.65;30.10;;;;;;;;;;5054179;28;20382;-82
2022/12/21 12:14:26;;;;;;;38.42;29.38;;;;;;;;;;5053545;28;20527;-82
2022/12/21 12:16:51;;;;;;;35.85;27.05;;;;;;;;;;5053038;28;20381;-82
2022/12/21 12:19:33;;;;;;;35.95;27.65;;;;;;;;;;5052810;28;20393;-82
2022/12/21 12:22:17;;;;;;;31.27;25.05;;;;;;;;;;5052825;28;20457;-82
2022/12/21 12:24:55;;;;;;;35.60;27.77;;;;;;;;;;5052715;28;20401;-82
2022/12/21 12:27:24;;;;;;;34.80;27.45;;;;;;;;;;5052741;28;20879;-82
2022/12/21 12:30:04;;;;;;;29.25;23.83;;;;;;;;;;5052682;28;20436;-82
2022/12/21 12:32:49;;;;;;;26.60;18.80;;;;;;;;;;5052790;28;21156;-82
2022/12/21 12:35:15;;;;;;;22.50;18.42;;;;;;;;;;5052573;28;20404;-82
2022/12/21 12:37:55;;;;;;;21.38;18.50;;;;;;;;;;5052726;28;20439;-82
2022/12/21 12:40:38;;;;;;;21.58;19.17;;;;;;;;;;5052369;28;20405;-82
2022/12/21 12:43:19;;;;;;;23.60;18.97;;;;;;;;;;5052581;28;20460;-82
2022/12/21 12:46:08;;;;;;;22.13;19.70;;;;;;;;;;5052461;28;20389;-82
2022/12/21 12:49:09;;;;;;;23.48;19.42;;;;;;;;;;5052550;28;20428;-82
2022/12/21 12:51:35;;;;;;;27.67;22.85;;;;;;;;;;4952223;29;20408;-82
2022/12/21 12:54:09;;;;;;;24.92;21.55;;;;;;;;;;5018720;28;20387;-82
2022/12/21 12:56:38;;;;;;;25.27;19.55;;;;;;;;;;5052378;28;20393;-82
2022/12/21 12:59:23;;;;;;;19.42;17.52;;;;;;;;;;5051468;28;20393;-82
2022/12/21 13:01:58;;;;;;;19.45;17.45;;;;;;;;;;5048926;28;20412;-82
2022/12/21 13:04:37;;;;;;;19.50;17.05;;;;;;;;;;5052076;28;20734;-82
2022/12/21 13:07:15;;;;;;;16.65;15.15;;;;;;;;;;5052074;28;20869;-82
2022/12/21 13:10:07;;;;;;;16.13;14.45;;;;;;;;;;5043702;28;20750;-82
2022/12/21 13:12:48;;;;;;;12.65;11.55;;;;;;;;;;5047535;28;20382;-82
2022/12/21 13:15:20;;;;;;;13.60;12.23;;;;;;;;;;5050178;28;20488;-82
2022/12/21 13:17:55;;;;;;;11.70;10.80;;;;;;;;;;5052374;28;20373;-82
2022/12/21 13:20:22;;;;;;;12.90;10.98;;;;;;;;;;5051869;28;20385;-82
2022/12/21 13:22:50;;;;;;;12.13;11.00;;;;;;;;;;5051758;28;20731;-82
2022/12/21 13:25:20;;;;;;;11.60;10.50;;;;;;;;;;5045843;28;20857;-82
2022/12/21 13:27:47;;;;;;;12.18;11.07;;;;;;;;;;5051789;28;20377;-82
2022/12/21 13:30:14;;;;;;;11.93;10.73;;;;;;;;;;5051712;28;20378;-82
2022/12/21 13:32:48;;;;;;;11.52;10.63;;;;;;;;;;5053083;28;20381;-82
2022/12/21 13:35:14;;;;;;;11.55;10.18;;;;;;;;;;5051618;28;20404;-82
2022/12/21 13:37:41;;;;;;;11.70;10.60;;;;;;;;;;5051663;28;20381;-82
2022/12/21 13:40:19;;;;;;;12.23;11.15;;;;;;;;;;5051437;28;20424;-82
2022/12/21 13:42:55;;;;;;;11.43;10.45;;;;;;;;;;5051723;28;20406;-82
2022/12/21 13:45:39;;;;;;;12.43;11.30;;;;;;;;;;5051722;28;20465;-82
2022/12/21 13:48:10;;;;;;;12.80;11.50;;;;;;;;;;5033744;28;20533;-82
2022/12/21 13:50:53;;;;;;;12.77;11.52;;;;;;;;;;5051493;28;20743;-82
2022/12/21 13:53:19;;;;;;;12.50;11.20;;;;;;;;;;5051612;28;20381;-82
2022/12/21 13:56:04;;;;;;;10.90;9.95;;;;;;;;;;5051154;28;20408;-82
2022/12/21 13:58:48;;;;;;;11.40;10.40;;;;;;;;;;5051680;28;20726;-82
2022/12/21 14:01:32;;;;;;;10.45;9.60;;;;;;;;;;5051189;28;20397;-81
2022/12/21 14:04:00;;;;;;;11.75;10.55;;;;;;;;;;5051376;28;20465;-81
2022/12/21 14:06:36;;;;;;;10.05;9.15;;;;;;;;;;5051360;28;20408;-81
2022/12/21 14:09:08;;;;;;;10.20;9.27;;;;;;;;;;5051376;28;20392;-81
2022/12/21 14:11:37;;;;;;;9.25;8.43;;;;;;;;;;5046075;28;20854;-81
2022/12/21 14:14:09;;;;;;;10.20;9.35;;;;;;;;;;5055848;28;20777;-82
2022/12/21 14:16:36;;;;;;;10.02;9.00;;;;;;;;;;5053877;28;20417;-82
2022/12/21 14:19:12;;;;;;;15.35;12.00;;;;;;;;;;5055866;28;20476;-81
2022/12/21 14:21:40;;;;;;;12.90;11.15;;;;;;;;;;5050575;28;20393;-81
2022/12/21 14:24:32;;;;;;;10.05;9.05;;;;;;;;;;5053845;28;20394;-81
2022/12/21 14:27:00;;;;;;;9.63;8.80;;;;;;;;;;5049712;28;20992;-82
2022/12/21 14:29:30;;;;;;;9.00;8.10;;;;;;;;;;5054166;28;20431;-81
2022/12/21 14:31:58;;;;;;;9.10;8.20;;;;;;;;;;5053769;28;21145;-81
2022/12/21 14:34:24;;;;;;;9.15;8.35;;;;;;;;;;5053090;28;20392;-82
2022/12/21 14:37:19;;;;;;;9.25;8.35;;;;;;;;;;5053221;28;20409;-82
2022/12/21 14:39:45;;;;;;;15.25;13.65;;;;;;;;;;5036897;28;20447;-81
2022/12/21 14:42:30;;;;;;;13.20;12.00;;;;;;;;;;5054091;28;20393;-82
2022/12/21 14:45:11;;;;;;;16.13;14.43;;;;;;;;;;5053956;28;20378;-81